createdAt,value
2017-12-16T00:00:32.344Z,15.13
2017-12-16T00:01:32.337Z,14.26
2017-12-16T00:02:32.311Z,14.65
2017-12-16T00:03:32.298Z,14.81
2017-12-16T00:04:32.293Z,15.00
2017-12-16T00:05:32.290Z,14.69
2017-12-16T00:06:32.274Z,14.56
2017-12-16T00:07:32.266Z,14.32
2017-12-16T00:08:32.256Z,14.56
2017-12-16T00:09:32.243Z,14.25
2017-12-16T00:10:32.229Z,14.09
2017-12-16T00:11:32.748Z,13.93
2017-12-16T00:12:32.212Z,13.37
2017-12-16T00:13:32.204Z,13.08
2017-12-16T00:14:32.195Z,12.79
2017-12-16T00:15:32.181Z,12.69
2017-12-16T00:16:32.165Z,12.71
2017-12-16T00:17:32.755Z,12.81
2017-12-16T00:18:32.750Z,13.28
2017-12-16T00:19:32.142Z,12.94
2017-12-16T00:20:32.141Z,12.62
2017-12-16T00:21:32.761Z,12.33
2017-12-16T00:22:32.118Z,12.68
2017-12-16T00:23:32.749Z,12.31
2017-12-16T00:24:34.752Z,11.32
2017-12-16T00:25:32.079Z,10.88
2017-12-16T00:26:32.085Z,10.66
2017-12-16T00:27:32.747Z,10.04
2017-12-16T00:28:32.040Z,10.33
2017-12-16T00:29:32.044Z,10.81
2017-12-16T00:30:32.751Z,10.32
2017-12-16T00:31:32.018Z,10.27
2017-12-16T00:32:32.751Z,10.38
2017-12-16T00:33:32.018Z,9.98
2017-12-16T00:34:34.755Z,10.64
2017-12-16T00:35:32.747Z,10.52
2017-12-16T00:36:31.962Z,10.12
2017-12-16T00:37:31.964Z,10.46
2017-12-16T00:38:32.748Z,10.26
2017-12-16T00:39:31.938Z,10.19
2017-12-16T00:40:31.919Z,10.54
2017-12-16T00:41:31.912Z,10.38
2017-12-16T00:42:32.754Z,10.43
2017-12-16T00:43:31.905Z,10.00
2017-12-16T00:44:31.897Z,9.90
2017-12-16T00:45:32.757Z,9.54
2017-12-16T00:46:31.865Z,9.58
2017-12-16T00:47:31.851Z,9.77
2017-12-16T00:48:31.851Z,9.49
2017-12-16T00:49:31.836Z,10.02
2017-12-16T00:50:32.750Z,10.20
2017-12-16T00:51:31.813Z,9.76
2017-12-16T00:52:31.808Z,9.85
2017-12-16T00:53:31.798Z,9.78
2017-12-16T00:54:31.779Z,9.83
2017-12-16T00:55:32.768Z,9.65
2017-12-16T00:56:32.757Z,9.44
2017-12-16T00:57:31.764Z,9.49
2017-12-16T00:58:34.259Z,9.38
2017-12-16T00:59:31.724Z,10.04
2017-12-16T01:00:31.736Z,9.85
2017-12-16T01:01:31.714Z,10.13
2017-12-16T01:02:31.704Z,10.39
2017-12-16T01:03:31.701Z,10.02
2017-12-16T01:04:31.687Z,10.19
2017-12-16T01:05:31.676Z,10.32
2017-12-16T01:06:31.656Z,10.22
2017-12-16T01:07:31.654Z,10.04
2017-12-16T01:08:31.652Z,9.85
2017-12-16T01:09:31.636Z,9.90
2017-12-16T01:10:31.630Z,9.91
2017-12-16T01:11:31.618Z,9.84
2017-12-16T01:12:31.602Z,10.04
2017-12-16T01:13:40.236Z,9.82
2017-12-16T01:16:22.650Z,9.82
2017-12-16T01:17:14.967Z,9.93
2017-12-16T01:19:58.339Z,10.42
2017-12-16T01:20:58.304Z,10.06
2017-12-16T01:23:42.762Z,10.55
2017-12-16T01:24:42.642Z,10.20
2017-12-16T01:27:27.100Z,10.76
2017-12-16T01:28:27.003Z,10.29
2017-12-16T01:31:12.895Z,10.86
2017-12-16T01:32:12.856Z,10.69
2017-12-16T01:33:12.842Z,10.81
2017-12-16T01:34:12.833Z,10.41
2017-12-16T01:35:12.819Z,10.42
2017-12-16T01:36:12.810Z,10.40
2017-12-16T01:37:12.798Z,10.23
2017-12-16T01:38:12.788Z,10.75
2017-12-16T01:39:12.784Z,10.68
2017-12-16T01:40:12.771Z,10.87
2017-12-16T01:41:12.751Z,10.83
2017-12-16T01:42:12.755Z,10.84
2017-12-16T01:43:12.737Z,10.53
2017-12-16T01:44:12.731Z,11.33
2017-12-16T01:45:12.723Z,10.89
2017-12-16T01:46:12.714Z,10.98
2017-12-16T01:47:12.716Z,11.04
2017-12-16T01:48:12.693Z,10.74
2017-12-16T01:49:12.682Z,11.02
2017-12-16T01:50:12.671Z,10.75
2017-12-16T01:51:12.663Z,10.93
2017-12-16T01:52:13.446Z,10.68
2017-12-16T01:53:12.637Z,10.67
2017-12-16T01:54:12.629Z,11.14
2017-12-16T01:55:12.614Z,10.80
2017-12-16T01:56:12.607Z,11.33
2017-12-16T01:57:12.596Z,11.43
2017-12-16T01:58:13.437Z,11.11
2017-12-16T01:59:12.587Z,11.36
2017-12-16T02:00:12.572Z,11.74
2017-12-16T02:01:12.565Z,11.30
2017-12-16T02:02:12.551Z,10.97
2017-12-16T02:03:12.543Z,11.12
2017-12-16T02:04:12.532Z,11.36
2017-12-16T02:05:12.522Z,11.52
2017-12-16T02:06:12.514Z,11.57
2017-12-16T02:07:12.502Z,11.05
2017-12-16T02:08:12.493Z,11.20
2017-12-16T02:09:13.444Z,11.66
2017-12-16T02:10:13.442Z,11.06
2017-12-16T02:11:12.455Z,11.05
2017-12-16T02:12:13.445Z,10.74
2017-12-16T02:13:12.443Z,11.55
2017-12-16T02:14:12.428Z,11.37
2017-12-16T02:15:12.426Z,10.95
2017-12-16T02:16:12.944Z,11.60
2017-12-16T02:17:12.403Z,11.78
2017-12-16T02:18:12.392Z,11.43
2017-12-16T02:19:12.378Z,11.49
2017-12-16T02:20:12.373Z,11.45
2017-12-16T02:21:12.358Z,11.10
2017-12-16T02:22:14.944Z,11.13
2017-12-16T02:23:12.358Z,11.66
2017-12-16T02:24:12.331Z,10.92
2017-12-16T02:25:12.320Z,11.26
2017-12-16T02:26:12.314Z,11.19
2017-12-16T02:27:12.304Z,11.34
2017-12-16T02:28:12.290Z,11.31
2017-12-16T02:29:12.285Z,11.40
2017-12-16T02:30:12.273Z,11.83
2017-12-16T02:31:12.268Z,11.30
2017-12-16T02:32:12.252Z,11.38
2017-12-16T02:33:12.234Z,11.98
2017-12-16T02:34:14.950Z,12.69
2017-12-16T02:35:12.216Z,13.10
2017-12-16T02:36:12.210Z,13.87
2017-12-16T02:37:12.204Z,13.73
2017-12-16T02:38:12.189Z,16.16
2017-12-16T02:39:12.182Z,20.79
2017-12-16T02:40:12.956Z,16.47
2017-12-16T02:41:12.166Z,15.46
2017-12-16T02:42:12.152Z,14.67
2017-12-16T02:43:12.144Z,16.00
2017-12-16T02:44:12.134Z,15.54
2017-12-16T02:45:12.126Z,15.81
2017-12-16T02:46:12.110Z,16.05
2017-12-16T02:47:12.106Z,13.87
2017-12-16T02:48:12.092Z,16.16
2017-12-16T02:49:12.082Z,17.76
2017-12-16T02:50:12.071Z,16.27
2017-12-16T02:51:12.062Z,16.39
2017-12-16T02:52:12.960Z,16.77
2017-12-16T02:53:12.042Z,17.14
2017-12-16T02:54:12.035Z,17.08
2017-12-16T02:55:12.035Z,18.54
2017-12-16T02:56:12.013Z,17.69
2017-12-16T02:57:12.001Z,17.74
2017-12-16T02:58:12.960Z,18.66
2017-12-16T02:59:11.981Z,20.53
2017-12-16T03:00:11.973Z,20.83
2017-12-16T03:01:11.964Z,20.40
2017-12-16T03:02:11.953Z,20.41
2017-12-16T03:03:11.958Z,21.14
2017-12-16T03:04:12.460Z,20.49
2017-12-16T03:05:14.455Z,19.77
2017-12-16T03:06:11.910Z,18.07
2017-12-16T03:07:11.905Z,18.38
2017-12-16T03:08:11.890Z,17.35
2017-12-16T03:09:11.944Z,16.17
2017-12-16T03:10:12.463Z,13.98
2017-12-16T03:11:11.865Z,13.84
2017-12-16T03:12:11.858Z,12.84
2017-12-16T03:13:11.844Z,12.56
2017-12-16T03:14:11.836Z,12.85
2017-12-16T03:15:11.828Z,12.33
2017-12-16T03:16:11.811Z,11.77
2017-12-16T03:17:11.801Z,12.41
2017-12-16T03:18:11.797Z,12.83
2017-12-16T03:19:11.788Z,12.72
2017-12-16T03:20:11.777Z,13.29
2017-12-16T03:21:11.765Z,12.58
2017-12-16T03:22:14.464Z,12.50
2017-12-16T03:23:12.467Z,12.78
2017-12-16T03:24:11.737Z,12.74
2017-12-16T03:25:11.732Z,13.74
2017-12-16T03:26:11.714Z,13.36
2017-12-16T03:27:11.706Z,14.02
2017-12-16T03:28:12.467Z,13.98
2017-12-16T03:29:11.681Z,13.55
2017-12-16T03:30:11.663Z,13.80
2017-12-16T03:31:11.669Z,14.56
2017-12-16T03:32:11.649Z,14.08
2017-12-16T03:33:11.656Z,13.42
2017-12-16T03:34:11.634Z,13.04
2017-12-16T03:35:11.624Z,14.64
2017-12-16T03:36:11.636Z,14.87
2017-12-16T03:37:11.605Z,15.76
2017-12-16T03:38:11.595Z,19.10
2017-12-16T03:39:12.474Z,19.13
2017-12-16T03:40:11.580Z,17.85
2017-12-16T03:41:11.565Z,16.60
2017-12-16T03:42:11.557Z,16.85
2017-12-16T03:43:12.465Z,15.76
2017-12-16T03:44:11.536Z,15.08
2017-12-16T03:45:11.524Z,15.74
2017-12-16T03:46:11.518Z,15.80
2017-12-16T03:47:11.504Z,14.48
2017-12-16T03:48:11.494Z,14.16
2017-12-16T03:49:11.485Z,14.74
2017-12-16T03:50:11.474Z,14.36
2017-12-16T03:51:11.463Z,14.13
2017-12-16T03:52:11.460Z,14.34
2017-12-16T03:53:11.446Z,15.03
2017-12-16T03:54:11.978Z,14.77
2017-12-16T03:55:11.424Z,15.01
2017-12-16T03:56:11.409Z,15.09
2017-12-16T03:57:11.410Z,15.25
2017-12-16T03:58:11.416Z,15.40
2017-12-16T03:59:11.378Z,15.30
2017-12-16T04:00:11.374Z,15.53
2017-12-16T04:01:11.374Z,15.28
2017-12-16T04:02:11.345Z,14.64
2017-12-16T04:03:11.339Z,14.88
2017-12-16T04:04:11.335Z,15.63
2017-12-16T04:05:11.327Z,15.43
2017-12-16T04:06:11.972Z,15.00
2017-12-16T04:07:11.304Z,14.74
2017-12-16T04:08:11.984Z,15.18
2017-12-16T04:09:11.288Z,14.92
2017-12-16T04:10:11.275Z,16.54
2017-12-16T04:11:11.271Z,14.84
2017-12-16T04:12:11.252Z,15.32
2017-12-16T04:13:13.985Z,15.48
2017-12-16T04:14:11.241Z,15.02
2017-12-16T04:15:11.237Z,14.82
2017-12-16T04:16:11.213Z,15.15
2017-12-16T04:17:11.210Z,15.20
2017-12-16T04:18:11.191Z,15.56
2017-12-16T04:19:11.184Z,15.95
2017-12-16T04:20:11.174Z,16.38
2017-12-16T04:21:11.160Z,17.18
2017-12-16T04:22:11.153Z,18.05
2017-12-16T04:23:11.140Z,17.60
2017-12-16T04:24:13.994Z,18.30
2017-12-16T04:25:11.127Z,18.56
2017-12-16T04:26:11.116Z,18.86
2017-12-16T04:27:11.106Z,18.83
2017-12-16T04:28:11.134Z,17.96
2017-12-16T04:29:11.085Z,17.57
2017-12-16T04:30:11.080Z,18.34
2017-12-16T04:31:11.995Z,18.69
2017-12-16T04:32:11.051Z,17.38
2017-12-16T04:33:11.044Z,17.32
2017-12-16T04:34:11.037Z,16.69
2017-12-16T04:35:11.024Z,17.72
2017-12-16T04:36:11.013Z,18.01
2017-12-16T04:37:11.979Z,17.33
2017-12-16T04:38:11.984Z,17.80
2017-12-16T04:39:10.986Z,18.68
2017-12-16T04:40:10.972Z,17.93
2017-12-16T04:41:10.969Z,18.16
2017-12-16T04:42:10.957Z,18.39
2017-12-16T04:43:10.953Z,17.91
2017-12-16T04:44:10.937Z,19.04
2017-12-16T04:45:10.928Z,18.98
2017-12-16T04:46:10.921Z,17.99
2017-12-16T04:47:10.916Z,18.40
2017-12-16T04:48:10.899Z,19.60
2017-12-16T04:49:10.885Z,19.17
2017-12-16T04:50:10.879Z,19.01
2017-12-16T04:51:10.869Z,19.53
2017-12-16T04:52:11.492Z,19.00
2017-12-16T04:53:10.843Z,19.34
2017-12-16T04:54:10.835Z,19.16
2017-12-16T04:55:10.829Z,19.80
2017-12-16T04:56:10.823Z,18.99
2017-12-16T04:57:10.811Z,19.12
2017-12-16T04:58:11.494Z,20.41
2017-12-16T04:59:10.787Z,20.49
2017-12-16T05:00:10.778Z,20.30
2017-12-16T05:01:10.769Z,19.78
2017-12-16T05:02:10.758Z,19.19
2017-12-16T05:03:10.761Z,19.33
2017-12-16T05:04:11.499Z,19.97
2017-12-16T05:05:10.723Z,19.70
2017-12-16T05:06:10.715Z,20.67
2017-12-16T05:07:10.707Z,20.26
2017-12-16T05:08:10.697Z,19.82
2017-12-16T05:09:10.687Z,20.16
2017-12-16T05:10:10.676Z,20.79
2017-12-16T05:11:10.670Z,19.65
2017-12-16T05:12:10.658Z,20.54
2017-12-16T05:13:10.649Z,19.88
2017-12-16T05:14:10.651Z,19.56
2017-12-16T05:15:10.635Z,20.22
2017-12-16T05:16:10.621Z,19.99
2017-12-16T05:17:10.612Z,21.32
2017-12-16T05:18:10.626Z,20.94
2017-12-16T05:19:10.585Z,20.15
2017-12-16T05:20:10.577Z,19.99
2017-12-16T05:21:10.566Z,19.94
2017-12-16T05:22:11.500Z,19.14
2017-12-16T05:23:10.555Z,19.64
2017-12-16T05:24:10.538Z,20.22
2017-12-16T05:25:10.529Z,19.50
2017-12-16T05:26:10.527Z,20.42
2017-12-16T05:27:10.516Z,20.23
2017-12-16T05:28:10.498Z,19.74
2017-12-16T05:29:10.490Z,20.12
2017-12-16T05:30:10.485Z,19.91
2017-12-16T05:31:10.468Z,20.49
2017-12-16T05:32:10.460Z,20.52
2017-12-16T05:33:10.447Z,21.05
2017-12-16T05:34:11.001Z,21.46
2017-12-16T05:35:10.435Z,20.59
2017-12-16T05:36:10.425Z,20.85
2017-12-16T05:37:10.406Z,20.50
2017-12-16T05:38:10.406Z,20.43
2017-12-16T05:39:17.009Z,21.38
2017-12-16T05:40:10.386Z,21.51
2017-12-16T05:41:13.001Z,19.64
2017-12-16T05:42:10.359Z,19.93
2017-12-16T05:43:10.352Z,20.47
2017-12-16T05:44:10.343Z,20.13
2017-12-16T05:45:10.332Z,20.43
2017-12-16T05:46:11.006Z,21.04
2017-12-16T05:47:10.315Z,21.31
2017-12-16T05:48:10.298Z,21.13
2017-12-16T05:49:10.283Z,20.89
2017-12-16T05:50:10.281Z,20.62
2017-12-16T05:51:10.282Z,20.96
2017-12-16T05:52:11.013Z,21.52
2017-12-16T05:53:10.267Z,21.32
2017-12-16T05:54:10.253Z,21.37
2017-12-16T05:55:10.238Z,21.63
2017-12-16T05:56:10.230Z,21.41
2017-12-16T05:57:10.215Z,21.08
2017-12-16T05:58:13.069Z,21.87
2017-12-16T05:59:11.010Z,20.52
2017-12-16T06:00:10.183Z,21.18
2017-12-16T06:01:11.460Z,21.69
2017-12-16T06:02:10.170Z,21.39
2017-12-16T06:03:10.150Z,20.82
2017-12-16T06:04:11.017Z,21.37
2017-12-16T06:05:13.016Z,21.98
2017-12-16T06:06:11.035Z,21.30
2017-12-16T06:07:10.126Z,21.92
2017-12-16T06:08:10.115Z,22.14
2017-12-16T06:09:10.097Z,21.98
2017-12-16T06:10:11.017Z,22.16
2017-12-16T06:11:11.020Z,23.29
2017-12-16T06:12:10.067Z,22.17
2017-12-16T06:13:10.064Z,22.61
2017-12-16T06:14:10.053Z,23.14
2017-12-16T06:15:10.040Z,23.30
2017-12-16T06:16:10.028Z,23.42
2017-12-16T06:17:10.027Z,23.02
2017-12-16T06:18:10.011Z,23.24
2017-12-16T06:19:10.014Z,23.55
2017-12-16T06:20:09.990Z,24.08
2017-12-16T06:21:09.984Z,23.92
2017-12-16T06:22:09.971Z,24.42
2017-12-16T06:23:09.973Z,23.60
2017-12-16T06:24:09.954Z,25.32
2017-12-16T06:25:09.941Z,24.77
2017-12-16T06:26:09.941Z,25.71
2017-12-16T06:27:09.926Z,27.00
2017-12-16T06:28:09.905Z,27.21
2017-12-16T06:29:09.902Z,27.14
2017-12-16T06:30:09.890Z,27.93
2017-12-16T06:31:09.882Z,27.65
2017-12-16T06:32:10.527Z,27.90
2017-12-16T06:33:10.531Z,29.62
2017-12-16T06:34:09.873Z,30.21
2017-12-16T06:35:10.525Z,31.71
2017-12-16T06:36:09.840Z,31.16
2017-12-16T06:37:09.827Z,32.30
2017-12-16T06:38:09.819Z,32.94
2017-12-16T06:39:09.822Z,31.93
2017-12-16T06:40:09.796Z,32.64
2017-12-16T06:41:10.526Z,32.48
2017-12-16T06:42:09.775Z,32.96
2017-12-16T06:43:09.769Z,32.91
2017-12-16T06:44:09.761Z,33.61
2017-12-16T06:45:09.750Z,32.64
2017-12-16T06:46:09.732Z,33.53
2017-12-16T06:47:10.530Z,33.91
2017-12-16T06:48:09.722Z,32.63
2017-12-16T06:49:09.710Z,32.75
2017-12-16T06:50:09.706Z,34.84
2017-12-16T06:51:10.550Z,34.38
2017-12-16T06:52:09.685Z,35.35
2017-12-16T06:53:09.662Z,35.10
2017-12-16T06:54:09.669Z,35.06
2017-12-16T06:55:10.537Z,35.28
2017-12-16T06:56:10.537Z,34.46
2017-12-16T06:57:10.526Z,34.30
2017-12-16T06:58:09.619Z,34.62
2017-12-16T06:59:12.523Z,36.14
2017-12-16T07:00:09.595Z,35.61
2017-12-16T07:01:09.583Z,33.99
2017-12-16T07:02:09.581Z,35.04
2017-12-16T07:03:09.574Z,34.38
2017-12-16T07:04:09.568Z,33.18
2017-12-16T07:05:09.555Z,33.51
2017-12-16T07:06:09.547Z,33.93
2017-12-16T07:07:09.534Z,34.67
2017-12-16T07:08:09.524Z,34.54
2017-12-16T07:09:09.513Z,35.09
2017-12-16T07:10:09.498Z,34.46
2017-12-16T07:11:09.497Z,34.52
2017-12-16T07:12:10.033Z,33.68
2017-12-16T07:13:09.479Z,34.25
2017-12-16T07:14:09.459Z,33.48
2017-12-16T07:15:09.461Z,35.43
2017-12-16T07:16:09.444Z,34.18
2017-12-16T07:17:09.433Z,33.24
2017-12-16T07:18:09.427Z,33.54
2017-12-16T07:19:09.418Z,33.86
2017-12-16T07:20:09.405Z,34.62
2017-12-16T07:21:09.393Z,35.29
2017-12-16T07:22:09.386Z,33.80
2017-12-16T07:23:09.376Z,34.29
2017-12-16T07:24:09.370Z,34.47
2017-12-16T07:25:09.349Z,35.04
2017-12-16T07:26:09.348Z,35.82
2017-12-16T07:27:09.349Z,35.36
2017-12-16T07:28:09.327Z,34.55
2017-12-16T07:29:09.316Z,35.53
2017-12-16T07:30:09.318Z,35.34
2017-12-16T07:31:09.290Z,34.58
2017-12-16T07:32:09.295Z,34.96
2017-12-16T07:33:09.277Z,33.36
2017-12-16T07:34:09.312Z,35.00
2017-12-16T07:35:10.068Z,33.80
2017-12-16T07:36:09.247Z,33.69
2017-12-16T07:37:09.242Z,34.10
2017-12-16T07:38:09.230Z,33.47
2017-12-16T07:39:09.218Z,33.47
2017-12-16T07:40:09.227Z,31.41
2017-12-16T07:41:09.208Z,32.70
2017-12-16T07:42:09.195Z,31.59
2017-12-16T07:43:09.184Z,32.19
2017-12-16T07:44:09.182Z,31.58
2017-12-16T07:45:09.165Z,31.21
2017-12-16T07:46:09.157Z,31.61
2017-12-16T07:47:09.161Z,32.39
2017-12-16T07:48:10.047Z,31.54
2017-12-16T07:49:09.117Z,31.57
2017-12-16T07:50:09.112Z,31.69
2017-12-16T07:51:09.107Z,32.64
2017-12-16T07:52:09.092Z,32.68
2017-12-16T07:53:09.087Z,32.88
2017-12-16T07:54:10.047Z,32.62
2017-12-16T07:55:10.047Z,32.48
2017-12-16T07:56:10.064Z,33.30
2017-12-16T07:57:09.044Z,32.47
2017-12-16T07:58:09.042Z,33.62
2017-12-16T07:59:09.032Z,33.51
2017-12-16T08:00:09.554Z,34.85
2017-12-16T08:01:09.003Z,35.51
2017-12-16T08:02:09.007Z,33.96
2017-12-16T08:03:08.990Z,35.01
2017-12-16T08:04:08.977Z,35.16
2017-12-16T08:05:08.968Z,35.26
2017-12-16T08:06:08.961Z,35.39
2017-12-16T08:07:08.949Z,34.87
2017-12-16T08:08:08.940Z,35.57
2017-12-16T08:09:08.930Z,35.01
2017-12-16T08:10:08.914Z,35.27
2017-12-16T08:11:08.910Z,34.84
2017-12-16T08:12:09.544Z,35.12
2017-12-16T08:13:08.889Z,35.86
2017-12-16T08:14:08.880Z,35.76
2017-12-16T08:15:08.871Z,36.88
2017-12-16T08:16:08.856Z,35.70
2017-12-16T08:17:08.861Z,35.37
2017-12-16T08:18:08.847Z,35.94
2017-12-16T08:19:08.837Z,35.54
2017-12-16T08:20:08.818Z,36.34
2017-12-16T08:21:08.817Z,37.36
2017-12-16T08:22:08.807Z,36.56
2017-12-16T08:23:08.799Z,36.61
2017-12-16T08:24:09.557Z,36.56
2017-12-16T08:25:08.771Z,36.30
2017-12-16T08:26:09.567Z,35.40
2017-12-16T08:27:09.549Z,35.61
2017-12-16T08:28:08.746Z,36.37
2017-12-16T08:29:08.737Z,36.71
2017-12-16T08:30:09.558Z,36.14
2017-12-16T08:31:09.556Z,36.18
2017-12-16T08:32:08.708Z,36.50
2017-12-16T08:33:08.698Z,37.04
2017-12-16T08:34:08.695Z,37.40
2017-12-16T08:35:08.681Z,38.03
2017-12-16T08:36:09.560Z,37.70
2017-12-16T08:37:09.561Z,36.30
2017-12-16T08:38:08.650Z,37.25
2017-12-16T08:39:09.576Z,36.64
2017-12-16T08:40:08.635Z,35.29
2017-12-16T08:41:08.633Z,36.76
2017-12-16T08:42:08.617Z,37.03
2017-12-16T08:43:08.607Z,37.46
2017-12-16T08:44:08.598Z,37.03
2017-12-16T08:45:08.591Z,37.90
2017-12-16T08:46:08.573Z,37.53
2017-12-16T08:47:08.589Z,37.88
2017-12-16T08:48:08.555Z,38.20
2017-12-16T08:49:13.172Z,37.50
2017-12-16T08:50:08.538Z,37.45
2017-12-16T08:51:08.533Z,37.69
2017-12-16T08:52:08.517Z,37.43
2017-12-16T08:53:08.533Z,39.29
2017-12-16T08:54:08.494Z,38.15
2017-12-16T08:55:08.500Z,36.47
2017-12-16T08:56:08.484Z,38.60
2017-12-16T08:57:08.469Z,38.97
2017-12-16T08:58:08.465Z,38.78
2017-12-16T08:59:08.463Z,36.46
2017-12-16T09:00:08.439Z,37.32
2017-12-16T09:01:09.067Z,37.73
2017-12-16T09:02:09.069Z,36.54
2017-12-16T09:03:08.426Z,37.27
2017-12-16T09:04:08.413Z,36.95
2017-12-16T09:05:08.394Z,36.62
2017-12-16T09:06:08.384Z,36.12
2017-12-16T09:07:08.405Z,35.16
2017-12-16T09:08:08.417Z,35.61
2017-12-16T09:09:08.359Z,35.34
2017-12-16T09:10:08.351Z,36.24
2017-12-16T09:11:08.331Z,37.94
2017-12-16T09:12:09.078Z,36.92
2017-12-16T09:13:09.074Z,35.62
2017-12-16T09:14:08.326Z,36.92
2017-12-16T09:15:08.326Z,37.26
2017-12-16T09:16:08.290Z,37.08
2017-12-16T09:17:08.287Z,36.67
2017-12-16T09:18:08.271Z,36.83
2017-12-16T09:19:08.270Z,36.25
2017-12-16T09:20:08.638Z,37.71
2017-12-16T09:21:08.272Z,36.70
2017-12-16T09:21:21.320Z,1.48
2017-12-16T09:23:08.228Z,37.22
2017-12-16T09:24:08.320Z,36.19
2017-12-16T09:25:08.213Z,36.17
2017-12-16T09:26:08.474Z,35.41
2017-12-16T09:27:09.070Z,36.82
2017-12-16T09:28:08.188Z,36.84
2017-12-16T09:29:09.076Z,36.35
2017-12-16T09:30:08.708Z,36.48
2017-12-16T09:31:08.169Z,37.39
2017-12-16T09:32:08.150Z,35.58
2017-12-16T09:33:08.143Z,36.10
2017-12-16T09:34:08.141Z,36.07
2017-12-16T09:35:08.132Z,36.20
2017-12-16T09:36:08.107Z,36.38
2017-12-16T09:37:08.096Z,34.28
2017-12-16T09:38:08.101Z,34.21
2017-12-16T09:39:08.084Z,35.28
2017-12-16T09:40:08.094Z,34.55
2017-12-16T09:41:08.074Z,34.67
2017-12-16T09:42:08.064Z,33.37
2017-12-16T09:43:08.599Z,33.65
2017-12-16T09:44:08.042Z,32.12
2017-12-16T09:45:08.588Z,33.07
2017-12-16T09:46:08.023Z,33.17
2017-12-16T09:47:08.013Z,32.48
2017-12-16T09:48:08.012Z,31.92
2017-12-16T09:49:07.997Z,30.63
2017-12-16T09:50:07.991Z,31.36
2017-12-16T09:51:07.988Z,30.31
2017-12-16T09:52:10.587Z,30.66
2017-12-16T09:53:07.970Z,31.23
2017-12-16T09:54:07.958Z,29.50
2017-12-16T09:55:07.951Z,29.30
2017-12-16T09:56:07.956Z,28.28
2017-12-16T09:57:18.822Z,29.04
2017-12-16T10:00:31.039Z,27.61
2017-12-16T10:03:34.492Z,27.37
2017-12-16T10:06:37.835Z,26.60
2017-12-16T10:07:37.759Z,25.77
2017-12-16T10:10:22.205Z,25.87
2017-12-16T10:11:22.088Z,24.75
2017-12-16T10:14:07.050Z,25.72
2017-12-16T10:15:05.456Z,25.17
2017-12-16T10:17:49.876Z,25.21
2017-12-16T10:18:50.316Z,24.30
2017-12-16T10:21:40.751Z,25.06
2017-12-16T10:22:34.164Z,24.65
2017-12-16T10:25:18.544Z,23.66
2017-12-16T10:26:18.510Z,24.27
2017-12-16T10:29:01.904Z,23.04
2017-12-16T10:30:01.927Z,20.94
2017-12-16T10:32:46.262Z,20.68
2017-12-16T10:33:46.628Z,20.73
2017-12-16T10:36:30.592Z,21.65
2017-12-16T10:37:30.562Z,20.98
2017-12-16T10:40:13.940Z,20.94
2017-12-16T10:41:13.916Z,20.45
2017-12-16T10:42:13.915Z,19.77
2017-12-16T10:43:20.934Z,20.28
2017-12-16T10:44:16.823Z,20.90
2017-12-16T10:45:17.335Z,20.09
2017-12-16T10:46:42.392Z,20.50
2017-12-16T10:47:29.244Z,20.32
2017-12-16T10:48:29.203Z,20.75
2017-12-16T10:49:29.990Z,20.23
2017-12-16T10:50:29.208Z,19.13
2017-12-16T10:51:29.180Z,19.44
2017-12-16T10:52:29.159Z,19.20
2017-12-16T10:53:29.984Z,19.34
2017-12-16T10:54:29.151Z,19.52
2017-12-16T10:55:29.143Z,18.36
2017-12-16T10:56:29.139Z,18.64
2017-12-16T10:57:29.128Z,18.76
2017-12-16T10:58:29.118Z,18.10
2017-12-16T10:59:29.107Z,17.06
2017-12-16T11:00:29.099Z,17.94
2017-12-16T11:01:29.092Z,17.24
2017-12-16T11:02:29.083Z,17.02
2017-12-16T11:03:29.071Z,17.57
2017-12-16T11:04:29.068Z,17.34
2017-12-16T11:05:29.062Z,16.38
2017-12-16T11:06:29.046Z,16.36
2017-12-16T11:07:29.036Z,15.75
2017-12-16T11:08:29.030Z,15.37
2017-12-16T11:09:31.997Z,15.02
2017-12-16T11:10:29.022Z,15.14
2017-12-16T11:11:29.996Z,14.32
2017-12-16T11:12:28.996Z,14.53
2017-12-16T11:13:28.986Z,15.27
2017-12-16T11:14:29.550Z,15.02
2017-12-16T11:15:28.978Z,14.03
2017-12-16T11:16:28.978Z,13.77
2017-12-16T11:17:28.961Z,13.79
2017-12-16T11:18:28.953Z,13.91
2017-12-16T11:19:28.942Z,13.44
2017-12-16T11:20:28.926Z,13.16
2017-12-16T11:21:28.923Z,13.46
2017-12-16T11:22:28.917Z,13.84
2017-12-16T11:23:28.907Z,13.81
2017-12-16T11:24:29.509Z,13.04
2017-12-16T11:25:28.892Z,12.81
2017-12-16T11:26:28.892Z,12.67
2017-12-16T11:27:28.884Z,12.89
2017-12-16T11:28:28.875Z,12.00
2017-12-16T11:29:28.863Z,10.68
2017-12-16T11:30:28.859Z,11.17
2017-12-16T11:31:29.507Z,10.67
2017-12-16T11:32:28.842Z,10.27
2017-12-16T11:33:29.510Z,10.50
2017-12-16T11:34:28.813Z,11.24
2017-12-16T11:35:28.819Z,10.74
2017-12-16T11:36:28.812Z,10.22
2017-12-16T11:37:28.829Z,10.96
2017-12-16T11:38:28.793Z,10.93
2017-12-16T11:39:28.784Z,10.89
2017-12-16T11:40:28.778Z,11.33
2017-12-16T11:41:28.765Z,11.17
2017-12-16T11:42:28.771Z,11.52
2017-12-16T11:43:28.748Z,11.34
2017-12-16T11:44:29.515Z,11.28
2017-12-16T11:45:29.510Z,11.23
2017-12-16T11:46:28.732Z,10.67
2017-12-16T11:47:28.711Z,10.92
2017-12-16T11:48:28.703Z,11.83
2017-12-16T11:49:29.511Z,10.90
2017-12-16T11:50:28.942Z,10.45
2017-12-16T11:51:28.687Z,9.94
2017-12-16T11:52:28.688Z,10.46
2017-12-16T11:53:28.676Z,9.85
2017-12-16T11:54:28.662Z,9.73
2017-12-16T11:55:28.672Z,9.84
2017-12-16T11:56:28.647Z,9.80
2017-12-16T11:57:28.643Z,9.32
2017-12-16T11:58:28.972Z,8.93
2017-12-16T11:59:28.634Z,8.75
2017-12-16T12:00:28.626Z,8.92
2017-12-16T12:01:28.607Z,8.57
2017-12-16T12:02:28.598Z,8.43
2017-12-16T12:03:28.603Z,8.50
2017-12-16T12:04:28.584Z,8.12
2017-12-16T12:05:29.509Z,8.07
2017-12-16T12:06:28.563Z,9.00
2017-12-16T12:07:28.564Z,8.60
2017-12-16T12:08:28.555Z,8.10
2017-12-16T12:09:28.561Z,8.58
2017-12-16T12:10:28.544Z,8.82
2017-12-16T12:11:28.528Z,8.09
2017-12-16T12:12:28.534Z,8.57
2017-12-16T12:13:28.521Z,8.98
2017-12-16T12:14:28.510Z,9.23
2017-12-16T12:15:28.501Z,8.74
2017-12-16T12:16:28.492Z,8.87
2017-12-16T12:17:28.551Z,8.75
2017-12-16T12:18:28.481Z,8.97
2017-12-16T12:19:28.771Z,9.08
2017-12-16T12:20:28.461Z,8.93
2017-12-16T12:21:28.450Z,9.32
2017-12-16T12:22:28.445Z,9.02
2017-12-16T12:23:28.448Z,9.37
2017-12-16T12:24:28.432Z,9.22
2017-12-16T12:25:28.427Z,8.33
2017-12-16T12:26:28.422Z,8.34
2017-12-16T12:27:28.662Z,8.50
2017-12-16T12:28:28.423Z,8.84
2017-12-16T12:29:28.397Z,8.44
2017-12-16T12:30:28.396Z,9.30
2017-12-16T12:31:28.385Z,8.45
2017-12-16T12:32:28.372Z,8.83
2017-12-16T12:33:29.029Z,8.70
2017-12-16T12:34:28.354Z,8.59
2017-12-16T12:35:29.034Z,8.78
2017-12-16T12:36:28.339Z,8.80
2017-12-16T12:37:28.332Z,7.76
2017-12-16T12:38:31.023Z,7.98
2017-12-16T12:39:29.042Z,8.07
2017-12-16T12:40:28.300Z,8.46
2017-12-16T12:41:28.300Z,8.62
2017-12-16T12:42:28.294Z,8.74
2017-12-16T12:43:28.276Z,9.17
2017-12-16T12:44:28.278Z,8.88
2017-12-16T12:45:28.262Z,8.66
2017-12-16T12:46:28.254Z,8.38
2017-12-16T12:47:28.252Z,8.21
2017-12-16T12:48:28.253Z,8.24
2017-12-16T12:49:28.242Z,8.62
2017-12-16T12:50:28.235Z,8.55
2017-12-16T12:51:28.219Z,8.56
2017-12-16T12:52:28.211Z,8.13
2017-12-16T12:53:28.226Z,8.30
2017-12-16T12:54:28.202Z,8.68
2017-12-16T12:55:28.187Z,8.41
2017-12-16T12:56:28.183Z,7.33
2017-12-16T12:57:29.036Z,7.34
2017-12-16T12:58:28.169Z,7.36
2017-12-16T12:59:28.153Z,7.97
2017-12-16T13:00:28.157Z,7.51
2017-12-16T13:01:28.142Z,7.80
2017-12-16T13:02:28.137Z,7.79
2017-12-16T13:03:28.126Z,7.80
2017-12-16T13:04:29.042Z,7.68
2017-12-16T13:05:28.117Z,7.00
2017-12-16T13:06:28.099Z,7.31
2017-12-16T13:07:29.043Z,7.44
2017-12-16T13:08:28.088Z,7.28
2017-12-16T13:09:28.071Z,7.70
2017-12-16T13:10:28.069Z,7.69
2017-12-16T13:11:28.058Z,7.86
2017-12-16T13:12:28.053Z,7.50
2017-12-16T13:13:28.045Z,8.05
2017-12-16T13:14:28.045Z,7.49
2017-12-16T13:15:28.030Z,7.52
2017-12-16T13:16:28.019Z,7.08
2017-12-16T13:17:28.014Z,7.10
2017-12-16T13:18:28.545Z,7.11
2017-12-16T13:19:27.999Z,7.31
2017-12-16T13:20:27.993Z,7.50
2017-12-16T13:21:27.990Z,7.10
2017-12-16T13:22:27.984Z,7.79
2017-12-16T13:23:27.962Z,7.52
2017-12-16T13:24:27.962Z,7.45
2017-12-16T13:25:27.958Z,7.52
2017-12-16T13:26:27.956Z,7.05
2017-12-16T13:27:34.546Z,7.82